Time;durP1;ratioP1;P1;durP2;ratioP2;P2;SDS_P1;SDS_P2;PMS_P1;PMS_P2;Temp;Humidity;BMP_temperature;BMP_pressure;BME280_temperature;BME280_humidity;BME280_pressure;Samples;Min_cycle;Max_cycle;Signal;HPM_P1;HPM_P2
2021/01/19 00:02:24;;;;;;;284.70;100.47;;;;;;;-12.20;67.30;100937.14;1704148;82;25908;-79
2021/01/19 00:04:51;;;;;;;277.55;97.08;;;;;;;-12.17;67.29;100940.95;1671667;83;25863;-79
2021/01/19 00:07:18;;;;;;;283.77;102.05;;;;;;;-12.18;67.39;100931.49;1679757;82;26396;-79
2021/01/19 00:09:46;;;;;;;281.17;98.75;;;;;;;-12.14;67.40;100944.73;1722649;81;25944;-79
2021/01/19 00:12:13;;;;;;;273.93;96.82;;;;;;;-12.19;67.35;100950.03;1701745;82;27542;-79
2021/01/19 00:14:43;;;;;;;242.30;88.65;;;;;;;-12.20;67.49;100941.87;1680704;82;26153;-79
2021/01/19 00:17:10;;;;;;;290.07;94.77;;;;;;;-12.18;67.45;100931.49;1729335;80;25824;-79
2021/01/19 00:19:37;;;;;;;255.85;92.22;;;;;;;-12.21;67.50;100938.86;1752940;80;25774;-79
2021/01/19 00:22:04;;;;;;;276.00;94.32;;;;;;;-12.16;67.62;100929.72;1684288;82;25377;-79
2021/01/19 00:24:32;;;;;;;267.70;95.60;;;;;;;-12.11;67.65;100932.62;1674799;82;28065;-79
2021/01/19 00:26:59;;;;;;;263.27;96.63;;;;;;;-12.05;67.64;100929.88;1680373;82;25796;-79
2021/01/19 00:29:26;;;;;;;271.37;95.72;;;;;;;-11.99;67.76;100920.69;1753885;80;25372;-79
2021/01/19 00:31:54;;;;;;;246.40;93.47;;;;;;;-11.88;67.82;100916.54;1706746;82;26294;-79
2021/01/19 00:34:21;;;;;;;270.77;96.87;;;;;;;-11.84;67.62;100918.16;1699199;82;25742;-79
2021/01/19 00:36:49;;;;;;;262.25;95.85;;;;;;;-11.77;67.73;100914.53;1684808;82;28471;-79
2021/01/19 00:39:17;;;;;;;261.23;90.80;;;;;;;-11.68;67.66;100918.61;1706513;81;25925;-79
2021/01/19 00:41:44;;;;;;;280.23;94.15;;;;;;;-11.62;67.70;100912.81;1706603;82;25790;-79
2021/01/19 00:44:11;;;;;;;249.80;92.08;;;;;;;-11.55;67.67;100907.03;1705926;82;25971;-79
2021/01/19 00:46:39;;;;;;;270.17;91.40;;;;;;;-11.44;67.95;100901.96;1741759;80;26543;-78
2021/01/19 00:49:06;;;;;;;263.87;96.65;;;;;;;-11.41;67.68;100899.30;1753658;80;27519;-79
2021/01/19 00:51:35;;;;;;;267.32;93.07;;;;;;;-11.34;67.75;100898.69;1712486;81;26524;-79
2021/01/19 00:54:03;;;;;;;299.07;98.35;;;;;;;-11.30;67.65;100895.13;1749547;80;26444;-80
2021/01/19 00:56:38;;;;;;;271.70;95.05;;;;;;;-11.28;67.50;100892.05;1768142;80;25832;-79
2021/01/19 00:59:06;;;;;;;263.12;94.07;;;;;;;-11.25;67.51;100888.95;1769654;80;25710;-79
2021/01/19 01:01:37;;;;;;;266.93;95.55;;;;;;;-11.29;67.41;100886.02;1754421;80;27534;-79
2021/01/19 01:04:05;;;;;;;253.90;88.47;;;;;;;-11.28;67.41;100888.17;1709314;82;26378;-79
2021/01/19 01:06:32;;;;;;;260.05;91.30;;;;;;;-11.29;67.26;100877.45;1729337;80;26557;-79
2021/01/19 01:08:59;;;;;;;260.17;91.63;;;;;;;-11.31;67.48;100882.64;1687385;82;25914;-79
2021/01/19 01:11:27;;;;;;;255.92;92.55;;;;;;;-11.34;67.19;100877.58;1698963;82;26314;-79
2021/01/19 01:13:54;;;;;;;259.95;96.87;;;;;;;-11.40;67.30;100870.44;1759692;80;28476;-79
2021/01/19 01:16:21;;;;;;;269.82;95.75;;;;;;;-11.39;67.51;100863.06;1697579;81;26306;-79
2021/01/19 01:18:50;;;;;;;268.82;98.97;;;;;;;-11.37;67.48;100860.84;1656171;83;25840;-79
2021/01/19 01:21:17;;;;;;;252.25;97.75;;;;;;;-11.41;67.20;100856.66;1680072;83;25814;-79
2021/01/19 01:23:44;;;;;;;259.83;97.00;;;;;;;-11.49;67.34;100850.86;1676032;83;25774;-78
2021/01/19 01:26:12;;;;;;;262.72;94.40;;;;;;;-11.56;67.35;100845.45;1694179;81;28172;-79
2021/01/19 01:28:39;;;;;;;261.27;97.60;;;;;;;-11.58;67.60;100844.66;1695488;81;25977;-79
2021/01/19 01:31:06;;;;;;;276.98;98.33;;;;;;;-11.59;67.63;100840.39;1718333;81;25722;-79
2021/01/19 01:33:34;;;;;;;246.68;88.60;;;;;;;-11.57;67.64;100839.91;1677559;83;26002;-79
2021/01/19 01:36:01;;;;;;;239.80;90.95;;;;;;;-11.51;67.88;100841.02;1647165;83;25764;-79
2021/01/19 01:38:28;;;;;;;258.05;94.37;;;;;;;-11.56;67.73;100838.14;1655704;83;28466;-79
2021/01/19 01:40:56;;;;;;;247.90;92.57;;;;;;;-11.66;67.91;100829.81;1679193;83;26155;-79
2021/01/19 01:43:23;;;;;;;245.02;93.05;;;;;;;-11.63;68.07;100837.46;1739677;81;26474;-79
2021/01/19 01:45:51;;;;;;;266.02;94.75;;;;;;;-11.63;68.30;100827.13;1698241;82;25990;-79
2021/01/19 01:48:18;;;;;;;259.48;92.45;;;;;;;-11.60;68.38;100833.95;1694676;81;25784;-79
2021/01/19 01:50:45;;;;;;;257.50;94.15;;;;;;;-11.60;68.54;100830.94;1676771;83;28943;-78
2021/01/19 01:53:13;;;;;;;239.78;93.95;;;;;;;-11.55;68.64;100829.52;1660094;83;27178;-79
2021/01/19 01:55:41;;;;;;;277.25;96.63;;;;;;;-11.60;68.47;100833.95;1679183;83;26376;-79
2021/01/19 01:58:08;;;;;;;263.35;95.67;;;;;;;-11.64;68.75;100829.77;1720020;82;26444;-79
2021/01/19 02:00:36;;;;;;;266.25;98.92;;;;;;;-11.66;68.95;100834.98;1719230;81;26114;-79
2021/01/19 02:03:03;;;;;;;268.50;98.30;;;;;;;-11.66;68.97;100834.16;1676693;83;27817;-79
2021/01/19 02:05:31;;;;;;;257.77;97.90;;;;;;;-11.71;69.10;100833.42;1653803;83;26535;-78
2021/01/19 02:08:22;;;;;;;263.75;98.58;;;;;;;-11.69;69.26;100832.94;1657637;83;26053;-78
2021/01/19 02:11:24;;;;;;;257.80;95.40;;;;;;;-11.68;69.37;100820.00;1692367;83;26474;-79
2021/01/19 02:14:03;;;;;;;267.90;97.50;;;;;;;-11.70;69.44;100815.77;1702433;81;25882;-79
2021/01/19 02:16:42;;;;;;;254.80;93.25;;;;;;;-11.64;69.69;100819.43;1744551;81;28514;-78
2021/01/19 02:19:52;;;;;;;248.35;89.60;;;;;;;-11.61;69.80;100815.48;1716108;81;26056;-78
2021/01/19 02:22:28;;;;;;;252.30;94.77;;;;;;;-11.61;69.84;100817.59;1714148;82;25812;-78
2021/01/19 02:25:07;;;;;;;272.42;96.22;;;;;;;-11.59;70.09;100808.09;1676706;82;26475;-78
2021/01/19 02:28:26;;;;;;;241.63;88.70;;;;;;;-11.58;70.19;100807.19;1657872;82;25903;-78
2021/01/19 02:31:42;;;;;;;259.62;93.92;;;;;;;-11.51;70.32;100806.13;1703499;81;28535;-78
2021/01/19 02:34:39;;;;;;;232.47;88.35;;;;;;;-11.42;70.46;100806.31;1726247;81;25776;-78
2021/01/19 02:37:13;;;;;;;236.05;88.45;;;;;;;-11.38;70.44;100801.45;1739930;81;25745;-78
2021/01/19 02:40:07;;;;;;;265.92;91.47;;;;;;;-11.29;70.71;100802.48;1699863;82;26131;-78
2021/01/19 02:43:01;;;;;;;260.30;92.40;;;;;;;-11.24;70.75;100793.68;1743779;81;25861;-79
2021/01/19 02:45:29;;;;;;;240.75;92.22;;;;;;;-11.19;70.91;100796.98;1722046;82;27082;-78
2021/01/19 02:47:56;;;;;;;250.35;90.12;;;;;;;-11.10;71.03;100798.45;1702096;81;25879;-78
2021/01/19 02:50:23;;;;;;;235.63;85.00;;;;;;;-11.10;70.97;100796.68;1719912;81;26195;-78
2021/01/19 02:52:51;;;;;;;254.63;89.13;;;;;;;-11.05;71.16;100789.64;1714062;82;25823;-78
2021/01/19 02:55:19;;;;;;;248.18;89.77;;;;;;;-11.01;71.32;100796.84;1742387;81;25828;-78
2021/01/19 02:58:07;;;;;;;269.93;95.17;;;;;;;-10.97;71.24;100798.91;1672796;82;27545;-79
2021/01/19 03:01:00;;;;;;;248.22;91.37;;;;;;;-10.92;71.38;100797.01;1727486;82;26406;-78
2021/01/19 03:03:36;;;;;;;235.85;85.90;;;;;;;-10.85;71.58;100791.61;1699227;82;25777;-79
2021/01/19 03:06:12;;;;;;;241.05;87.90;;;;;;;-10.79;71.62;100786.23;1718373;81;26276;-79
2021/01/19 03:08:42;;;;;;;251.52;90.57;;;;;;;-10.69;71.77;100789.39;1699675;82;26172;-79
2021/01/19 03:11:13;;;;;;;240.37;91.22;;;;;;;-10.63;71.80;100786.16;1699651;82;28488;-78
2021/01/19 03:13:48;;;;;;;246.97;88.97;;;;;;;-10.55;71.79;100792.37;1698680;82;25859;-79
2021/01/19 03:16:20;;;;;;;254.47;94.40;;;;;;;-10.50;71.84;100780.13;1712020;82;26023;-78
2021/01/19 03:18:49;;;;;;;239.82;90.72;;;;;;;-10.39;72.13;100772.86;1670216;83;25556;-79
2021/01/19 03:21:17;;;;;;;239.68;90.40;;;;;;;-10.29;72.05;100774.23;1669670;84;26167;-79
2021/01/19 03:23:44;;;;;;;232.43;88.33;;;;;;;-10.19;72.18;100769.13;1670587;83;27545;-79
2021/01/19 03:26:11;;;;;;;223.22;84.58;;;;;;;-10.10;72.08;100771.37;1695422;84;25868;-79
2021/01/19 03:28:39;;;;;;;247.98;90.90;;;;;;;-10.07;71.94;100767.83;1671553;83;25892;-79
2021/01/19 03:31:06;;;;;;;260.38;94.20;;;;;;;-10.05;71.90;100749.19;1657394;83;25799;-79
2021/01/19 03:33:33;;;;;;;244.35;88.72;;;;;;;-10.05;71.99;100746.13;1643811;83;25791;-78
2021/01/19 03:36:01;;;;;;;256.00;93.85;;;;;;;-10.03;71.93;100746.09;1677341;83;28400;-79
2021/01/19 03:38:28;;;;;;;232.27;88.03;;;;;;;-10.05;71.94;100735.77;1628668;85;26004;-79
2021/01/19 03:40:56;;;;;;;241.30;88.78;;;;;;;-10.00;72.06;100733.87;1646131;85;25937;-79
2021/01/19 03:43:23;;;;;;;231.60;86.53;;;;;;;-10.02;72.00;100727.90;1667526;83;25868;-78
2021/01/19 03:45:50;;;;;;;227.55;89.47;;;;;;;-9.96;72.22;100725.08;1677915;83;25851;-78
2021/01/19 03:48:17;;;;;;;237.88;86.32;;;;;;;-9.93;72.18;100717.22;1653508;83;27706;-79
2021/01/19 03:50:45;;;;;;;233.02;83.45;;;;;;;-9.93;72.31;100712.03;1692473;83;26305;-78
2021/01/19 03:53:12;;;;;;;217.53;87.62;;;;;;;-9.89;72.37;100707.13;1673047;84;25877;-78
2021/01/19 03:55:40;;;;;;;228.00;85.87;;;;;;;-9.84;72.53;100701.34;1668073;84;25892;-79
2021/01/19 03:58:07;;;;;;;222.00;82.97;;;;;;;-9.74;72.77;100696.20;1695380;83;25922;-78
2021/01/19 04:00:34;;;;;;;224.12;80.40;;;;;;;-9.68;72.65;100699.00;1674902;82;27509;-79
2021/01/19 04:03:02;;;;;;;224.18;86.67;;;;;;;-9.70;72.72;100692.58;1679517;84;26517;-79
2021/01/19 04:05:29;;;;;;;223.75;84.67;;;;;;;-9.67;72.94;100683.41;1625780;84;25815;-79
2021/01/19 04:07:57;;;;;;;204.07;73.47;;;;;;;-9.60;73.00;100682.25;1667684;83;25567;-79
2021/01/19 04:10:24;;;;;;;235.55;86.20;;;;;;;-9.56;73.06;100682.52;1678751;83;25759;-79
2021/01/19 04:12:51;;;;;;;238.68;85.97;;;;;;;-9.56;73.18;100681.70;1690420;83;27541;-79
2021/01/19 04:15:18;;;;;;;231.38;91.57;;;;;;;-9.47;73.36;100678.28;1648743;82;25913;-79
2021/01/19 04:17:46;;;;;;;224.92;87.53;;;;;;;-9.38;73.45;100673.64;1676197;82;25910;-79
2021/01/19 04:20:13;;;;;;;205.40;79.70;;;;;;;-9.31;73.59;100676.39;1700823;82;26496;-79
2021/01/19 04:22:40;;;;;;;220.67;77.78;;;;;;;-9.27;73.43;100684.44;1727176;82;25874;-79
2021/01/19 04:25:08;;;;;;;218.22;86.00;;;;;;;-9.22;73.48;100681.22;1700530;82;27520;-79
2021/01/19 04:27:36;;;;;;;216.93;81.82;;;;;;;-9.21;73.46;100675.97;1702720;82;25876;-79
2021/01/19 04:30:07;;;;;;;223.35;80.42;;;;;;;-9.16;73.55;100677.94;1675881;82;26195;-78
2021/01/19 04:32:36;;;;;;;208.20;80.95;;;;;;;-9.16;73.36;100674.05;1701836;82;25873;-79
2021/01/19 04:35:05;;;;;;;211.50;79.85;;;;;;;-9.14;73.43;100677.42;1702234;82;25741;-78
2021/01/19 04:37:32;;;;;;;223.25;86.70;;;;;;;-9.15;73.37;100681.37;1733565;82;28298;-79
2021/01/19 04:40:03;;;;;;;220.63;83.92;;;;;;;-9.19;73.24;100671.56;1675188;82;26450;-78
2021/01/19 04:42:37;;;;;;;225.55;87.10;;;;;;;-9.12;73.43;100663.93;1700826;82;25775;-79
2021/01/19 04:45:08;;;;;;;217.72;83.52;;;;;;;-9.10;73.20;100656.08;1700946;82;25782;-80
2021/01/19 04:47:37;;;;;;;221.40;83.62;;;;;;;-9.10;73.23;100659.97;1678500;82;26039;-79
2021/01/19 04:50:11;;;;;;;217.15;83.55;;;;;;;-9.05;73.45;100661.48;1678267;82;28501;-78
2021/01/19 04:52:42;;;;;;;211.60;82.78;;;;;;;-9.00;73.28;100661.30;1701594;82;26271;-79
2021/01/19 04:55:15;;;;;;;231.90;87.82;;;;;;;-9.05;72.89;100668.42;1698654;82;25979;-79
2021/01/19 04:57:43;;;;;;;216.33;83.42;;;;;;;-9.03;73.25;100664.02;1725207;82;25827;-79
2021/01/19 05:00:16;;;;;;;220.67;81.63;;;;;;;-9.01;73.20;100666.09;1684362;82;26383;-78
2021/01/19 05:02:56;;;;;;;233.93;87.92;;;;;;;-8.99;73.11;100665.13;1698262;82;28490;-79
2021/01/19 05:05:49;;;;;;;216.02;81.22;;;;;;;-9.01;72.91;100653.11;1693826;82;32475;-79
2021/01/19 05:08:22;;;;;;;218.37;80.75;;;;;;;-9.03;72.92;100653.63;1694231;83;25894;-79
2021/01/19 05:11:01;;;;;;;222.70;84.40;;;;;;;-9.10;73.03;100647.84;1711151;82;26708;-78
2021/01/19 05:13:51;;;;;;;213.63;81.60;;;;;;;-9.07;73.28;100652.08;1712051;82;25991;-79
2021/01/19 05:16:27;;;;;;;228.15;88.80;;;;;;;-9.02;73.32;100659.19;1718517;81;27537;-79
2021/01/19 05:18:55;;;;;;;220.17;85.05;;;;;;;-9.06;73.20;100656.34;1701558;83;25720;-78
2021/01/19 05:21:23;;;;;;;239.38;91.22;;;;;;;-9.04;73.37;100655.82;1691190;83;25809;-79
2021/01/19 05:23:51;;;;;;;235.28;91.85;;;;;;;-9.07;73.33;100656.81;1689542;83;25713;-79
2021/01/19 05:26:19;;;;;;;240.25;89.10;;;;;;;-9.04;73.55;100653.23;1661873;83;26440;-79
2021/01/19 05:28:54;;;;;;;224.55;84.87;;;;;;;-9.06;73.36;100650.70;1631413;85;27317;-79
2021/01/19 05:31:28;;;;;;;233.75;82.20;;;;;;;-9.05;73.54;100652.41;1657714;83;25857;-79
2021/01/19 05:34:03;;;;;;;236.60;87.40;;;;;;;-9.07;73.40;100656.81;1655809;85;26395;-79
2021/01/19 05:36:49;;;;;;;236.40;85.87;;;;;;;-9.11;73.29;100656.52;1683606;83;25741;-79
2021/01/19 05:39:20;;;;;;;221.15;84.03;;;;;;;-9.11;73.44;100653.92;1659781;84;25900;-78
2021/01/19 05:41:50;;;;;;;245.55;90.50;;;;;;;-9.13;73.52;100657.52;1660740;83;27620;-79
2021/01/19 05:44:23;;;;;;;245.00;94.42;;;;;;;-9.14;73.68;100664.89;1652027;85;26270;-79
2021/01/19 05:49:41;;;;;;;240.47;91.25;;;;;;;-9.00;73.94;100658.23;1799491;79;25847;-79
2021/01/19 05:52:15;;;;;;;237.02;87.78;;;;;;;-9.06;73.70;100657.19;1771835;80;26286;-79
2021/01/19 05:54:48;;;;;;;241.63;91.70;;;;;;;-9.04;73.71;100653.23;1729225;80;28397;-79
2021/01/19 05:57:23;;;;;;;231.35;94.30;;;;;;;-9.06;73.67;100657.19;1755686;80;26254;-79
2021/01/19 05:59:58;;;;;;;242.82;88.58;;;;;;;-9.05;73.90;100654.15;1784226;80;25760;-81
2021/01/19 06:02:43;;;;;;;238.65;93.72;;;;;;;-8.99;74.05;100657.34;1771652;80;26428;-79
2021/01/19 06:05:16;;;;;;;247.02;94.28;;;;;;;-8.99;73.71;100658.64;1742023;78;25802;-80
2021/01/19 06:07:47;;;;;;;287.70;114.28;;;;;;;-9.00;73.42;100649.63;1664648;82;28026;-79
2021/01/19 06:10:20;;;;;;;313.30;112.05;;;;;;;-9.00;73.54;100645.25;1727644;81;26060;-80
2021/01/19 06:12:47;;;;;;;249.37;93.03;;;;;;;-9.01;73.42;100643.59;1701589;83;25967;-80
2021/01/19 06:15:15;;;;;;;305.43;116.77;;;;;;;-9.07;73.38;100633.47;1682797;81;25965;-82
2021/01/19 06:17:42;;;;;;;309.45;123.07;;;;;;;-9.07;73.48;100632.17;1646346;82;25789;-80
2021/01/19 06:20:10;;;;;;;319.37;118.25;;;;;;;-9.09;73.45;100622.75;1732911;81;28532;-80
2021/01/19 06:22:39;;;;;;;767.50;324.67;;;;;;;-9.13;73.48;100619.42;1704468;81;26250;-80
2021/01/19 06:25:13;;;;;;;467.07;198.62;;;;;;;-9.13;73.55;100618.60;1712006;81;25860;-81
2021/01/19 06:27:41;;;;;;;319.23;128.20;;;;;;;-9.11;73.72;100616.79;1699620;82;26443;-80
2021/01/19 06:30:13;;;;;;;433.30;180.97;;;;;;;-9.12;74.00;100608.60;1721782;81;25762;-82
2021/01/19 06:32:50;;;;;;;263.98;104.20;;;;;;;-9.07;74.08;100612.71;1690876;81;28572;-81
2021/01/19 06:35:23;;;;;;;327.93;155.75;;;;;;;-9.03;73.97;100610.82;1735440;80;25428;-80
2021/01/19 06:37:54;;;;;;;305.85;127.17;;;;;;;-9.01;74.16;100601.22;1734667;81;25857;-81
2021/01/19 06:40:26;;;;;;;270.75;118.22;;;;;;;-8.98;74.15;100601.92;1750949;80;25875;-81
2021/01/19 06:42:59;;;;;;;;;;;;;;;-8.99;74.12;100608.48;1736430;80;25436;-80
2021/01/19 06:45:27;;;;;;;249.35;99.67;;;;;;;-9.00;74.22;100610.23;1711949;82;28516;-80
2021/01/19 06:47:57;;;;;;;258.70;108.00;;;;;;;-9.02;74.11;100607.30;1701209;81;25947;-80
2021/01/19 06:50:28;;;;;;;287.53;115.67;;;;;;;-9.02;74.33;100606.00;1705067;81;25854;-80
2021/01/19 06:53:23;;;;;;;358.00;153.97;;;;;;;-9.02;74.52;100616.38;1711663;81;26171;-80
2021/01/19 06:56:05;;;;;;;290.23;123.40;;;;;;;-9.01;74.30;100622.83;1705114;81;25824;-80
2021/01/19 06:58:56;;;;;;;252.35;98.17;;;;;;;-8.95;74.33;100629.05;1708228;81;27416;-80
2021/01/19 07:01:28;;;;;;;221.20;87.12;;;;;;;-8.91;74.37;100623.27;1707703;83;26399;-80
2021/01/19 07:04:24;;;;;;;236.92;90.83;;;;;;;-8.84;74.30;100625.56;1696507;83;25879;-81
2021/01/19 07:07:19;;;;;;;250.25;96.17;;;;;;;-8.83;74.30;100622.05;1701205;82;25833;-81
2021/01/19 07:10:04;;;;;;;247.42;96.72;;;;;;;-8.79;74.37;100624.08;1665770;84;25852;-80
2021/01/19 07:12:54;;;;;;;253.18;101.55;;;;;;;-8.78;74.22;100625.74;1689078;82;27528;-80
2021/01/19 07:15:32;;;;;;;241.82;100.38;;;;;;;-8.79;74.31;100626.19;1667479;82;26074;-81
2021/01/19 07:18:48;;;;;;;268.00;106.90;;;;;;;-8.75;74.49;100617.39;1705364;83;26598;-80
2021/01/19 07:21:19;;;;;;;254.87;108.65;;;;;;;-8.72;74.31;100617.25;1701389;82;26410;-80
2021/01/19 07:23:58;;;;;;;255.95;101.27;;;;;;;-8.71;74.45;100612.91;1694083;84;26040;-80
2021/01/19 07:26:37;;;;;;;287.68;103.40;;;;;;;-8.66;74.54;100610.97;1705474;82;27334;-82
2021/01/19 07:29:04;;;;;;;278.07;108.92;;;;;;;-8.59;74.68;100612.81;1704787;82;25883;-80
2021/01/19 07:31:33;;;;;;;250.95;99.95;;;;;;;-8.53;74.60;100601.70;1688777;84;25853;-81
2021/01/19 07:34:04;;;;;;;311.70;114.77;;;;;;;-8.51;74.43;100599.87;1692424;84;26167;-80
2021/01/19 07:36:32;;;;;;;252.15;97.65;;;;;;;-8.50;74.54;100598.14;1695047;82;26156;-81
2021/01/19 07:38:59;;;;;;;433.90;238.65;;;;;;;-8.43;74.73;100606.91;1694261;82;27546;-81
2021/01/19 07:41:35;;;;;;;290.62;137.10;;;;;;;-8.39;74.81;100604.56;1673827;82;25855;-81
2021/01/19 07:44:03;;;;;;;259.32;106.83;;;;;;;-8.32;74.74;100605.98;1688376;84;26010;-80
2021/01/19 07:46:31;;;;;;;254.40;98.60;;;;;;;-8.22;74.76;100604.61;1691250;84;26291;-82
2021/01/19 07:49:06;;;;;;;237.50;95.25;;;;;;;-8.17;74.46;100612.20;1693554;82;25924;-77
2021/01/19 07:51:43;;;;;;;284.05;106.40;;;;;;;-8.15;74.53;100606.48;1724525;82;27537;-77
2021/01/19 07:54:24;;;;;;;256.23;97.65;;;;;;;-8.14;74.43;100603.81;1671504;82;25984;-79
2021/01/19 07:56:52;;;;;;;232.40;87.95;;;;;;;-8.11;74.48;100602.38;1719637;82;26632;-81
2021/01/19 07:59:21;;;;;;;269.98;107.60;;;;;;;-8.07;74.55;100603.08;1696383;83;25920;-80
2021/01/19 08:01:57;;;;;;;245.67;99.03;;;;;;;-8.02;74.72;100601.94;1723466;80;25828;-78
2021/01/19 08:04:33;;;;;;;259.50;101.78;;;;;;;-7.95;74.68;100593.41;1697792;82;28514;-77
2021/01/19 08:07:14;;;;;;;246.55;98.80;;;;;;;-7.95;74.45;100586.91;1698483;82;26540;-78
2021/01/19 08:09:42;;;;;;;252.05;100.50;;;;;;;-7.94;74.54;100589.45;1718485;81;26183;-79
2021/01/19 08:12:14;;;;;;;269.62;115.17;;;;;;;-7.91;74.55;100584.09;1719833;81;25888;-80
2021/01/19 08:14:44;;;;;;;245.22;98.03;;;;;;;-7.81;74.63;100581.08;1692654;81;26212;-79
2021/01/19 08:17:13;;;;;;;;;;;;;;;-7.76;74.62;100585.13;1676015;82;28528;-79
2021/01/19 08:19:44;;;;;;;293.45;125.10;;;;;;;-7.69;74.71;100585.69;1713092;81;26030;-79
2021/01/19 08:22:13;;;;;;;246.68;108.55;;;;;;;-7.68;74.54;100588.69;1723458;82;25867;-80
2021/01/19 08:24:44;;;;;;;265.18;116.22;;;;;;;-7.65;74.65;100585.47;1690957;81;26310;-76
2021/01/19 08:27:11;;;;;;;292.80;126.20;;;;;;;-7.65;74.45;100590.67;1713857;82;26513;-78
2021/01/19 08:29:41;;;;;;;276.48;109.25;;;;;;;-7.61;74.67;100587.01;1719551;80;27420;-77
2021/01/19 08:32:12;;;;;;;248.17;100.33;;;;;;;-7.54;74.72;100584.51;1758465;80;26127;-81
2021/01/19 08:34:40;;;;;;;287.85;121.92;;;;;;;-7.54;74.49;100580.61;1725739;80;25954;-78
2021/01/19 08:37:14;;;;;;;255.77;110.45;;;;;;;-7.54;74.66;100578.00;1702895;81;26174;-78
2021/01/19 08:39:53;;;;;;;263.05;114.32;;;;;;;-7.46;74.82;100578.95;1721862;82;25950;-80
2021/01/19 08:42:21;;;;;;;243.88;95.45;;;;;;;-7.41;74.72;100578.25;1721907;81;27556;-79
2021/01/19 08:45:00;;;;;;;264.68;119.65;;;;;;;-7.43;74.62;100577.03;1697742;82;25964;-79
2021/01/19 08:47:31;;;;;;;316.30;144.17;;;;;;;-7.40;74.79;100573.45;1702063;81;25924;-79
2021/01/19 08:49:59;;;;;;;310.15;145.55;;;;;;;-7.33;74.89;100573.52;1707866;82;26472;-79
2021/01/19 08:52:27;;;;;;;257.18;111.28;;;;;;;-7.28;74.93;100571.09;1721105;81;26425;-80
2021/01/19 08:54:54;;;;;;;251.85;104.87;;;;;;;-7.14;75.11;100577.73;1696269;81;27887;-80
2021/01/19 08:57:22;;;;;;;256.32;101.53;;;;;;;-7.00;75.01;100576.21;1722418;80;26208;-80
2021/01/19 08:59:50;;;;;;;243.97;96.80;;;;;;;-6.90;74.68;100583.94;1727126;82;25889;-79
2021/01/19 09:02:17;;;;;;;252.50;105.83;;;;;;;-6.91;74.48;100577.06;1743125;80;26367;-78
2021/01/19 09:04:46;;;;;;;267.07;107.00;;;;;;;-6.88;74.63;100577.73;1702430;80;25815;-79
2021/01/19 09:07:13;;;;;;;263.55;103.12;;;;;;;-6.83;74.55;100572.30;1711959;80;27614;-79
2021/01/19 09:09:46;;;;;;;254.13;102.55;;;;;;;-6.78;74.71;100571.61;1734251;81;26209;-78
2021/01/19 09:12:18;;;;;;;296.77;116.03;;;;;;;-6.69;74.60;100572.45;1745752;80;25811;-80
2021/01/19 09:14:51;;;;;;;372.82;140.35;;;;;;;-6.65;74.56;100575.27;1737123;80;26373;-80
2021/01/19 09:17:28;;;;;;;346.55;131.35;;;;;;;-6.56;74.77;100570.41;1713143;80;25727;-80
2021/01/19 09:20:05;;;;;;;372.88;144.17;;;;;;;-6.55;74.38;100568.20;1719255;80;26717;-80
2021/01/19 09:22:32;;;;;;;433.00;174.80;;;;;;;-6.55;74.43;100568.66;1746200;80;26472;-80
2021/01/19 09:25:00;;;;;;;302.65;124.38;;;;;;;-6.53;74.46;100573.33;1712167;80;25824;-80
2021/01/19 09:27:27;;;;;;;273.15;110.48;;;;;;;-6.49;74.56;100565.27;1687912;82;26108;-79
2021/01/19 09:30:11;;;;;;;288.73;115.92;;;;;;;-6.48;74.46;100571.33;1692120;81;25781;-78
2021/01/19 09:32:44;;;;;;;238.85;95.62;;;;;;;-6.43;74.59;100564.09;1706866;83;28321;-79
2021/01/19 09:35:18;;;;;;;268.63;106.27;;;;;;;-6.45;74.38;100561.58;1703352;82;25841;-76
2021/01/19 09:37:45;;;;;;;269.98;110.68;;;;;;;-6.44;74.36;100557.22;1685943;81;25882;-77
2021/01/19 09:40:13;;;;;;;263.65;118.87;;;;;;;-6.47;74.31;100558.67;1713108;81;25937;-79
2021/01/19 09:42:41;;;;;;;296.15;118.30;;;;;;;-6.46;74.26;100546.03;1695166;83;25850;-79
2021/01/19 09:45:10;;;;;;;282.70;116.40;;;;;;;-6.49;74.34;100543.13;1724947;81;27544;-79
2021/01/19 09:47:41;;;;;;;254.95;105.15;;;;;;;-6.44;74.52;100545.04;1670589;82;26454;-80
2021/01/19 09:50:11;;;;;;;251.32;112.05;;;;;;;-6.40;74.58;100542.65;1724619;81;25857;-79
2021/01/19 09:52:45;;;;;;;264.20;118.00;;;;;;;-6.37;74.45;100540.31;1690639;82;26427;-80
2021/01/19 09:55:14;;;;;;;244.43;104.45;;;;;;;-6.35;74.66;100533.28;1728057;81;25847;-80
2021/01/19 09:57:42;;;;;;;257.37;102.25;;;;;;;-6.26;74.81;100525.44;1685224;81;27989;-81
2021/01/19 10:00:13;;;;;;;260.30;97.17;;;;;;;-6.24;74.59;100520.98;1704875;81;25898;-79
2021/01/19 10:02:41;;;;;;;259.30;104.85;;;;;;;-6.24;74.51;100524.41;1702325;82;25805;-79
2021/01/19 10:05:08;;;;;;;260.52;104.10;;;;;;;-6.21;74.70;100515.13;1733263;81;25923;-80
2021/01/19 10:07:36;;;;;;;300.73;120.17;;;;;;;-6.17;74.61;100510.12;1691349;82;25867;-79
2021/01/19 10:10:10;;;;;;;270.50;108.65;;;;;;;-6.12;74.70;100511.17;1695978;83;27749;-80
2021/01/19 10:12:38;;;;;;;256.68;101.12;;;;;;;-6.06;74.63;100513.44;1725643;82;25821;-79
2021/01/19 10:15:08;;;;;;;250.18;102.92;;;;;;;-6.10;74.50;100511.48;1725092;81;25796;-80
2021/01/19 10:17:37;;;;;;;299.62;123.45;;;;;;;-6.05;74.69;100509.44;1689779;81;26561;-79
2021/01/19 10:20:14;;;;;;;303.77;131.85;;;;;;;-5.96;74.70;100505.02;1711917;82;25394;-79
2021/01/19 10:22:44;;;;;;;297.50;118.02;;;;;;;-5.94;74.45;100507.54;1708819;81;27181;-82
2021/01/19 10:25:16;;;;;;;285.95;116.45;;;;;;;-5.92;74.52;100500.02;1729431;82;32660;-80
2021/01/19 10:27:45;;;;;;;314.32;124.18;;;;;;;-5.83;74.60;100490.34;1632716;84;25835;-81
2021/01/19 10:30:13;;;;;;;277.18;112.92;;;;;;;-5.79;74.16;100492.31;1640501;84;25857;-80
2021/01/19 10:32:51;;;;;;;255.00;107.07;;;;;;;-5.81;74.32;100482.42;1645547;84;25803;-80
2021/01/19 10:35:31;;;;;;;227.32;96.50;;;;;;;-5.77;74.50;100487.84;1685923;84;26764;-80
2021/01/19 10:38:03;;;;;;;245.75;97.35;;;;;;;-5.68;74.60;100496.00;1637806;85;25818;-79
2021/01/19 10:40:32;;;;;;;240.90;93.42;;;;;;;-5.61;74.52;100492.58;1693738;84;25898;-81
2021/01/19 10:43:11;;;;;;;241.68;98.92;;;;;;;-5.64;74.23;100496.20;1675098;84;26353;-80
2021/01/19 10:45:41;;;;;;;243.37;96.30;;;;;;;-5.67;74.32;100495.09;1696859;84;25552;-81
2021/01/19 10:48:21;;;;;;;240.80;97.72;;;;;;;-5.67;74.31;100488.56;1615232;85;28285;-80
2021/01/19 10:50:49;;;;;;;248.03;97.50;;;;;;;-5.63;74.50;100480.09;1637042;85;26719;-80
2021/01/19 10:53:28;;;;;;;244.32;103.35;;;;;;;-5.61;74.50;100487.36;1664353;84;25903;-80
2021/01/19 10:55:55;;;;;;;247.90;105.30;;;;;;;-5.63;74.54;100487.46;1669146;84;25855;-81
2021/01/19 10:58:23;;;;;;;238.40;98.12;;;;;;;-5.57;74.61;100476.67;1653166;83;25816;-82
2021/01/19 11:00:50;;;;;;;234.32;97.10;;;;;;;-5.53;74.71;100477.32;1636808;85;27556;-81
2021/01/19 11:03:17;;;;;;;262.93;112.75;;;;;;;-5.47;74.83;100478.27;1588531;85;25753;-81
2021/01/19 11:05:45;;;;;;;215.28;91.30;;;;;;;-5.39;74.63;100475.23;1664650;84;25788;-81
2021/01/19 11:08:12;;;;;;;258.10;108.83;;;;;;;-5.37;74.49;100471.61;1663611;83;26176;-81
2021/01/19 11:10:40;;;;;;;247.88;106.52;;;;;;;-5.38;74.51;100467.30;1639027;85;25853;-81
2021/01/19 11:13:08;;;;;;;244.07;101.38;;;;;;;-5.35;74.53;100461.91;1646922;84;27211;-81
2021/01/19 11:15:35;;;;;;;230.32;98.55;;;;;;;-5.33;74.47;100456.14;1703812;83;25832;-80
2021/01/19 11:18:02;;;;;;;245.42;103.53;;;;;;;-5.27;74.59;100455.77;1656902;83;25903;-81
2021/01/19 11:20:30;;;;;;;236.85;100.35;;;;;;;-5.23;74.40;100457.27;1656394;83;25865;-80
2021/01/19 11:22:57;;;;;;;228.80;101.02;;;;;;;-5.20;74.56;100447.11;1652702;83;25921;-81